Aeroporto :
LOGIN :

Iscrizione | Disclaimer

   EN    FR    IT 

 










Sommario :    VFR   VFR Marginale   IFR   IFR Intensivo   IFR Molto Intensivo
Visibilità : 
Base nubi : 
>= 8 km
>= 3000ft
5 / 8 km
1000 / 3000 ft
1500m / 5 km
500 / 1000 ft
800 / 1500m
200 / 500 ft
< 800m
< 200 ft
Simboli :   Temporali  Nebbia  Neve Forte  Precipitazioni Forti  Vento > 20 kt
SIGMETs :   Varie  Temporali  Ghiacco  Turbolenza  Onda orograficha  Ceneri Vulcaniche







- Altitudine del aeroporto : 291 ft
- Codice IATA : ORY
- Carte del aeroporto


LFPO - Paris-Orly

ULTIMO METAR :
  • 201600Z 13003KT 5000 SCT009 SCT018 BKN040 03/01 Q1002 TEMPO BKN009

METARs OBSOLETI :
  • 201530Z 12003KT 6000 SCT009 SCT016 BKN023 03/01 Q1002 TEMPO BKN009
  • 201500Z 13003KT 6000 SCT008 BKN027 03/01 Q1002 NOSIG
  • 201430Z 09004KT 6000 -RA BKN008 BKN023 03/01 Q1002 NOSIG
  • 201400Z 10005KT 7000 -RA BKN008 BKN014 02/01 Q1002 TEMPO 4000 -RA BKN004
  • 201330Z 10006KT 7000 -RA BKN008 BKN013 02/01 Q1002 TEMPO 4000 -RA BKN004

TAF AMD TAF LFPO
Valido dal 20 a 15 ore il 21 a 18 ore UTC


201515Z 2015/2118 12004KT 7000 BKN020
PROB40
TEMPO 2015/2018 4000 -RA BKN012
TEMPO 2019/2108 4000 BR BKN005
PROB30
TEMPO 2021/2024 0800 BCFG SCT002
PROB40
TEMPO 2100/2106 0600 FG VV///
PROB40
TEMPO 2106/2108 2000 BR BKN003
BECMG 2108/2110 BKN008
BECMG 2110/2112 BKN012
TEMPO 2115/2118 SCT015
ATIS : +33 1 49 75 65 80
Nessun NOTAM noto per questo aeroporto.



MetMap, La meteo Aeronautica in un colpo d'occhio ! - Copyright ORBIFLY Dicembre 2007 - Disclaimer

ORBIFLY MET'MAP TEAM :

Programmazione e sviluppo : Alexandra Zaïnal
Concezione e sviluppo : Baudouin d'Aumeries
Co-Programmazione e sviluppo : Marc-Olivier Méhu
Supporto tecnico e logistico : Manuel Goepfert
Aiuto per la traduzione : Arnaldo La Scala

Contatto : metmap@orbifly.com




FONTI E CREDITI :

   NOAA